Time;durP1;ratioP1;P1;durP2;ratioP2;P2;SDS_P1;SDS_P2;PMS_P1;PMS_P2;Temp;Humidity;BMP_temperature;BMP_pressure;BME280_temperature;BME280_humidity;BME280_pressure;Samples;Min_cycle;Max_cycle;Signal;HPM_P1;HPM_P2
2023/09/13 00:00:18;;;;;;;35.53;23.35;;;;;;;29.80;71.63;100994.88;4891077;28;66082;-35
2023/09/13 00:02:48;;;;;;;35.10;21.52;;;;;;;29.84;73.09;100996.16;4925408;28;70242;-35
2023/09/13 00:05:18;;;;;;;18.75;15.35;;;;;;;29.90;69.88;100999.88;4928949;28;66997;-34
2023/09/13 00:07:48;;;;;;;28.95;18.30;;;;;;;29.89;70.31;101000.06;4923413;28;70183;-36
2023/09/13 00:10:21;;;;;;;20.73;16.33;;;;;;;29.96;70.48;101014.44;4926581;28;65939;-36
2023/09/13 00:12:51;;;;;;;23.75;14.23;;;;;;;29.99;69.68;101008.59;4932158;28;70396;-35
2023/09/13 00:15:21;;;;;;;19.00;13.02;;;;;;;30.00;71.38;101015.66;4922413;28;66047;-37
2023/09/13 00:17:52;;;;;;;13.40;11.30;;;;;;;29.99;70.72;101014.00;4916864;28;69114;-35
2023/09/13 00:20:22;;;;;;;13.85;10.90;;;;;;;30.05;70.79;101018.56;4926267;28;66484;-36
2023/09/13 00:22:52;;;;;;;11.52;9.60;;;;;;;30.09;70.65;101022.53;4929127;28;69732;-35
2023/09/13 00:25:22;;;;;;;9.98;8.98;;;;;;;30.11;70.68;101017.72;4926247;28;66045;-35
2023/09/13 00:27:52;;;;;;;10.05;6.97;;;;;;;30.08;71.45;101028.97;4929404;28;69812;-35
2023/09/13 00:30:22;;;;;;;7.25;6.40;;;;;;;30.13;71.96;101037.28;4920349;28;66253;-36
2023/09/13 00:32:52;;;;;;;7.32;5.88;;;;;;;30.14;71.33;101027.28;4925544;28;70859;-36
2023/09/13 00:35:22;;;;;;;7.53;5.55;;;;;;;30.14;73.19;101038.94;4891719;28;66129;-36
2023/09/13 00:37:52;;;;;;;6.03;5.50;;;;;;;30.07;71.89;101021.91;4923975;28;70597;-35
2023/09/13 00:40:22;;;;;;;5.97;4.93;;;;;;;30.20;71.51;101039.94;4906819;28;66607;-36
2023/09/13 00:42:53;;;;;;;5.22;4.72;;;;;;;30.20;74.25;101042.66;4911502;28;69394;-36
2023/09/13 00:45:23;;;;;;;4.90;4.50;;;;;;;30.19;73.42;101036.41;4911216;28;66183;-37
2023/09/13 00:47:53;;;;;;;4.28;3.90;;;;;;;30.21;75.57;101039.75;4926619;28;69826;-38
2023/09/13 00:50:24;;;;;;;3.55;3.25;;;;;;;30.30;72.58;101037.69;4914154;28;67052;-37
2023/09/13 00:53:04;;;;;;;4.13;3.25;;;;;;;30.31;70.94;101027.69;4906981;28;70183;-37
2023/09/13 00:55:35;;;;;;;4.40;3.40;;;;;;;30.39;70.26;101036.38;4911753;28;66340;-38
2023/09/13 00:58:06;;;;;;;5.63;2.60;;;;;;;30.44;70.32;101042.00;4927139;28;70020;-38
2023/09/13 01:00:37;;;;;;;2.47;2.27;;;;;;;30.46;69.65;101042.63;4921811;28;65941;-38
2023/09/13 01:03:07;;;;;;;2.67;2.15;;;;;;;30.48;69.51;101039.72;4936223;28;69925;-36
2023/09/13 01:05:38;;;;;;;2.05;1.80;;;;;;;30.53;69.32;101039.88;4941123;28;66717;-36
2023/09/13 01:08:08;;;;;;;1.70;1.60;;;;;;;30.50;69.09;101026.78;4928519;28;70212;-36
2023/09/13 01:10:38;;;;;;;1.73;1.27;;;;;;;30.55;68.86;101034.28;4925644;28;66140;-36
2023/09/13 01:13:08;;;;;;;3.13;1.60;;;;;;;30.58;68.37;101037.38;4912380;28;70133;-36
2023/09/13 01:15:59;;;;;;;1.17;1.08;;;;;;;30.25;68.56;100973.38;4915844;28;66569;-36
2023/09/13 01:18:47;;;;;;;1.30;0.90;;;;;;;30.18;68.57;100969.84;4917002;28;70204;-36
2023/09/13 01:21:32;;;;;;;1.17;1.02;;;;;;;30.55;68.39;101029.69;4918897;28;66294;-38
2023/09/13 01:24:12;;;;;;;1.08;0.90;;;;;;;30.65;68.54;101030.06;4924105;28;70034;-36
2023/09/13 01:26:48;;;;;;;1.67;0.75;;;;;;;30.66;68.34;101020.88;4936304;28;65237;-42
2023/09/13 01:29:20;;;;;;;1.10;1.00;;;;;;;30.40;68.07;100977.69;4922619;28;70003;-38
2023/09/13 01:31:50;;;;;;;;;;;;;;;30.35;69.15;101028.94;4915106;28;65355;-36
2023/09/13 01:34:19;;;;;;;0.85;0.70;;;;;;;30.68;67.92;101032.34;4932515;28;69444;-37
2023/09/13 01:36:50;;;;;;;1.00;0.70;;;;;;;30.72;68.09;101035.44;4933973;28;66391;-36
2023/09/13 01:39:20;;;;;;;1.00;0.63;;;;;;;30.66;67.85;101015.47;4909158;28;70117;-37
2023/09/13 01:42:06;;;;;;;1.08;0.80;;;;;;;30.38;68.00;100977.06;4904907;28;64832;-36
2023/09/13 01:44:40;;;;;;;0.88;0.80;;;;;;;30.43;67.68;100977.28;4929870;28;70564;-38
2023/09/13 01:47:12;;;;;;;0.70;0.70;;;;;;;30.78;67.72;101037.28;4911746;28;66352;-36
2023/09/13 01:49:44;;;;;;;0.60;0.60;;;;;;;30.63;67.71;101010.47;4914530;28;70367;-36
2023/09/13 01:52:14;;;;;;;0.80;0.50;;;;;;;30.81;67.53;101038.75;4925280;28;65793;-37
2023/09/13 01:54:45;;;;;;;1.20;0.80;;;;;;;30.72;67.47;101017.31;4922225;28;69979;-38
2023/09/13 01:57:15;;;;;;;1.00;0.50;;;;;;;30.81;67.49;101026.03;4921001;28;66518;-36
2023/09/13 01:59:45;;;;;;;0.60;0.60;;;;;;;30.81;67.14;101025.22;4904778;28;70233;-36
2023/09/13 02:02:15;;;;;;;4.85;0.70;;;;;;;30.79;67.20;101009.16;4892901;28;65849;-36
2023/09/13 02:04:45;;;;;;;0.70;0.63;;;;;;;30.91;67.42;101028.28;4925571;28;70278;-38
2023/09/13 02:07:16;;;;;;;1.00;0.60;;;;;;;30.92;67.13;101025.38;4927923;28;66090;-37
2023/09/13 02:09:47;;;;;;;1.77;0.70;;;;;;;30.88;67.33;101018.72;4921318;28;70129;-37
2023/09/13 02:12:17;;;;;;;0.98;0.70;;;;;;;30.96;67.54;101023.06;4909707;28;66491;-36
2023/09/13 02:14:47;;;;;;;0.88;0.82;;;;;;;30.98;67.07;101014.69;4907497;28;70217;-36
2023/09/13 02:17:18;;;;;;;0.80;0.70;;;;;;;30.99;66.98;101017.19;4915121;28;66347;-37
2023/09/13 02:19:49;;;;;;;0.93;0.75;;;;;;;31.01;66.78;101012.41;4920001;28;69440;-36
2023/09/13 02:22:19;;;;;;;1.60;0.70;;;;;;;31.02;67.08;101019.47;4916160;28;66491;-36
2023/09/13 02:24:49;;;;;;;0.80;0.80;;;;;;;31.04;66.63;101014.66;4871603;28;69800;-36
2023/09/13 02:27:19;;;;;;;1.55;0.85;;;;;;;31.07;66.56;101016.94;4875030;29;66067;-36
2023/09/13 02:29:49;;;;;;;1.10;0.70;;;;;;;31.06;66.88;101009.84;4903044;28;69444;-36
2023/09/13 02:32:19;;;;;;;1.58;0.90;;;;;;;31.09;66.60;101006.72;4919168;28;65450;-36
2023/09/13 02:34:49;;;;;;;1.25;0.70;;;;;;;31.05;66.64;101001.94;4905103;28;70105;-35
2023/09/13 02:37:19;;;;;;;0.95;0.82;;;;;;;31.15;66.59;101008.56;4907893;28;66743;-37
2023/09/13 02:39:49;;;;;;;0.80;0.70;;;;;;;31.16;66.45;101012.91;4904947;28;70087;-36
2023/09/13 02:42:19;;;;;;;1.00;0.82;;;;;;;31.19;66.36;101008.09;4907803;28;65932;-36
2023/09/13 02:44:50;;;;;;;0.80;0.70;;;;;;;31.19;66.16;101008.09;4916121;28;70086;-37
2023/09/13 02:47:21;;;;;;;0.90;0.65;;;;;;;31.22;66.22;101007.66;4915524;28;66416;-36
2023/09/13 02:49:51;;;;;;;1.17;0.95;;;;;;;31.25;66.00;101009.94;4919491;28;70380;-36
2023/09/13 02:52:32;;;;;;;1.00;0.80;;;;;;;31.16;66.45;100999.34;4916645;28;65560;-37
2023/09/13 02:55:05;;;;;;;1.13;0.80;;;;;;;31.29;65.96;101008.47;4895332;28;69193;-37
2023/09/13 02:57:35;;;;;;;0.70;0.70;;;;;;;31.29;66.06;100998.44;4902928;28;65981;-37
2023/09/13 03:00:06;;;;;;;0.90;0.77;;;;;;;31.33;65.78;100994.22;4917583;28;70437;-37
2023/09/13 03:02:42;;;;;;;0.73;0.60;;;;;;;31.35;65.79;101000.28;4914660;28;65376;-37
2023/09/13 03:05:12;;;;;;;0.90;0.70;;;;;;;31.35;65.56;100999.44;4907303;28;70392;-36
2023/09/13 03:07:42;;;;;;;1.38;0.75;;;;;;;31.38;65.60;101012.59;4902433;28;65893;-38
2023/09/13 03:10:12;;;;;;;0.60;0.50;;;;;;;31.39;65.65;100998.78;4894636;28;69711;-37
2023/09/13 03:12:43;;;;;;;1.00;0.68;;;;;;;31.46;65.49;101008.78;4906732;28;66930;-39
2023/09/13 03:15:13;;;;;;;1.05;0.60;;;;;;;31.37;65.36;100990.06;4911123;28;69448;-37
2023/09/13 03:17:46;;;;;;;0.63;0.60;;;;;;;31.50;65.29;101008.09;4915974;28;65350;-39
2023/09/13 03:20:16;;;;;;;0.60;0.50;;;;;;;31.54;65.17;101011.22;4918539;28;70417;-37
2023/09/13 03:22:46;;;;;;;0.80;0.60;;;;;;;31.56;65.13;101007.19;4908923;28;66231;-36
2023/09/13 03:25:17;;;;;;;2.40;0.52;;;;;;;31.55;65.23;101010.97;4913378;28;70459;-37
2023/09/13 03:27:48;;;;;;;0.90;0.65;;;;;;;31.54;65.07;101009.31;4891402;28;66082;-36
2023/09/13 03:30:19;;;;;;;3.33;0.57;;;;;;;31.61;64.78;101007.38;4907860;28;70308;-36
2023/09/13 03:32:49;;;;;;;0.82;0.50;;;;;;;31.65;64.80;101006.91;4898199;28;66068;-36
2023/09/13 03:35:19;;;;;;;0.50;0.50;;;;;;;31.66;64.74;100995.88;4921144;28;70512;-36
2023/09/13 03:37:49;;;;;;;0.40;0.40;;;;;;;31.69;64.63;100992.69;4917094;28;65356;-36
2023/09/13 03:40:19;;;;;;;0.47;0.40;;;;;;;31.71;64.63;100997.91;4905769;28;69534;-37
2023/09/13 03:42:50;;;;;;;0.63;0.52;;;;;;;31.73;64.37;100993.06;4922187;28;66706;-36
2023/09/13 03:45:20;;;;;;;0.82;0.50;;;;;;;31.74;64.26;100989.34;4903202;28;70133;-37
2023/09/13 03:47:50;;;;;;;0.40;0.40;;;;;;;31.76;64.38;100992.63;4904034;28;66897;-37
2023/09/13 03:50:20;;;;;;;1.15;0.47;;;;;;;31.70;64.51;100977.25;4902112;28;70086;-37
2023/09/13 03:52:51;;;;;;;0.40;0.40;;;;;;;31.82;64.04;100991.75;4911902;28;66925;-37
2023/09/13 03:55:21;;;;;;;0.90;0.70;;;;;;;31.85;64.22;100985.88;4905303;28;70274;-36
2023/09/13 03:57:51;;;;;;;0.55;0.38;;;;;;;31.78;64.28;100979.69;4905188;28;66652;-37
2023/09/13 04:00:22;;;;;;;0.52;0.45;;;;;;;31.84;64.04;100981.47;4910179;28;69211;-36
2023/09/13 04:02:52;;;;;;;2.20;0.60;;;;;;;31.89;63.58;100983.53;4925030;28;66137;-36
2023/09/13 04:05:22;;;;;;;0.57;0.45;;;;;;;31.91;63.91;100990.44;4905285;28;71092;-36
2023/09/13 04:07:52;;;;;;;1.00;0.60;;;;;;;31.93;63.94;100982.03;4923777;28;66846;-37
2023/09/13 04:10:22;;;;;;;0.70;0.40;;;;;;;31.92;63.75;100974.97;4904361;28;70480;-37
2023/09/13 04:12:52;;;;;;;0.43;0.40;;;;;;;31.97;63.38;100977.84;4901544;28;66542;-36
2023/09/13 04:15:22;;;;;;;0.50;0.50;;;;;;;31.99;63.84;100968.44;4912396;28;70111;-36
2023/09/13 04:17:53;;;;;;;0.70;0.70;;;;;;;31.92;63.29;100956.81;4897922;28;66306;-37
2023/09/13 04:20:23;;;;;;;0.70;0.70;;;;;;;32.03;63.40;100966.91;4919952;28;69397;-38
2023/09/13 04:22:53;;;;;;;1.55;0.60;;;;;;;32.05;63.57;100958.56;4920385;28;66344;-36
2023/09/13 04:25:23;;;;;;;0.77;0.63;;;;;;;32.02;63.49;100946.25;4902855;28;70120;-36
2023/09/13 04:27:54;;;;;;;0.57;0.50;;;;;;;32.07;63.31;100961.03;4902023;28;66513;-37
2023/09/13 04:30:24;;;;;;;0.60;0.47;;;;;;;32.07;63.33;100945.59;4911627;28;70183;-36
2023/09/13 04:32:54;;;;;;;0.90;0.70;;;;;;;32.11;63.47;100940.53;4889420;28;66228;-37
2023/09/13 04:35:24;;;;;;;1.20;0.60;;;;;;;32.05;63.04;100932.25;4918679;28;70146;-38
2023/09/13 04:37:54;;;;;;;0.70;0.60;;;;;;;32.13;63.01;100928.41;4907930;28;66141;-38
2023/09/13 04:40:25;;;;;;;0.80;0.63;;;;;;;32.13;62.95;100935.72;4908544;28;69654;-37
2023/09/13 04:43:15;;;;;;;1.92;1.00;;;;;;;32.00;62.86;100910.38;4914721;28;66411;-36
2023/09/13 04:45:45;;;;;;;0.80;0.80;;;;;;;32.18;62.96;100930.41;4912218;28;70406;-36
2023/09/13 04:48:16;;;;;;;0.98;0.90;;;;;;;32.19;62.89;100918.50;4910070;28;67578;-36
2023/09/13 04:50:46;;;;;;;1.23;0.80;;;;;;;32.19;62.73;100911.19;4917536;28;69784;-37
2023/09/13 04:53:16;;;;;;;1.42;0.95;;;;;;;32.21;62.79;100919.13;4929221;28;65448;-38
2023/09/13 04:55:46;;;;;;;0.70;0.70;;;;;;;32.17;62.98;100901.63;4933526;28;70860;-37
2023/09/13 04:58:16;;;;;;;0.77;0.73;;;;;;;32.13;62.52;100884.16;4884307;28;66023;-38
2023/09/13 05:00:46;;;;;;;0.70;0.70;;;;;;;32.22;62.83;100904.50;4929844;28;69558;-37
2023/09/13 05:03:16;;;;;;;0.93;0.80;;;;;;;32.27;62.71;100893.78;4917791;28;65844;-37
2023/09/13 05:05:47;;;;;;;0.93;0.75;;;;;;;32.13;62.78;100865.16;4922972;28;70645;-37
2023/09/13 05:08:17;;;;;;;0.85;0.70;;;;;;;32.24;62.50;100880.66;4928852;28;66143;-35
2023/09/13 05:10:47;;;;;;;0.50;0.50;;;;;;;32.32;62.53;100883.06;4921994;28;70228;-36
2023/09/13 05:13:17;;;;;;;0.80;0.80;;;;;;;32.32;62.54;100865.91;4929088;28;65641;-38
2023/09/13 05:15:47;;;;;;;0.80;0.70;;;;;;;32.36;62.50;100872.56;4919387;28;69176;-39
2023/09/13 05:18:18;;;;;;;0.88;0.65;;;;;;;32.28;62.47;100854.72;4927057;28;67396;-37
2023/09/13 05:20:48;;;;;;;0.88;0.60;;;;;;;32.36;62.33;100857.09;4909707;28;70626;-38
2023/09/13 05:23:18;;;;;;;1.45;0.93;;;;;;;32.39;62.23;100850.38;4929752;28;66419;-39
2023/09/13 05:25:52;;;;;;;0.93;0.82;;;;;;;32.39;62.19;100842.22;4929745;28;70435;-38
2023/09/13 05:28:22;;;;;;;0.75;0.73;;;;;;;31.99;62.40;100781.22;4921672;28;66582;-37
2023/09/13 05:30:54;;;;;;;1.17;0.80;;;;;;;32.41;62.32;100838.22;4921649;28;70208;-36
2023/09/13 05:33:25;;;;;;;1.17;1.08;;;;;;;32.41;62.53;100830.09;4930991;28;65020;-36
2023/09/13 05:35:55;;;;;;;0.63;0.63;;;;;;;32.41;62.42;100821.94;4934288;28;70616;-36
2023/09/13 05:38:25;;;;;;;0.65;0.65;;;;;;;32.45;62.50;100812.25;4928031;28;65984;-36
2023/09/13 05:40:55;;;;;;;0.82;0.63;;;;;;;32.47;62.22;100815.59;4916446;28;69389;-40
2023/09/13 05:43:28;;;;;;;0.90;0.60;;;;;;;32.47;62.27;100793.88;4913715;28;66353;-36
2023/09/13 05:45:59;;;;;;;0.80;0.70;;;;;;;32.50;62.26;100792.59;4922951;28;70153;-36
2023/09/13 05:48:29;;;;;;;0.75;0.70;;;;;;;32.53;62.20;100794.00;4920996;28;65868;-37
2023/09/13 05:50:59;;;;;;;1.17;0.60;;;;;;;32.54;62.39;100773.94;4934020;28;70358;-37
2023/09/13 05:53:30;;;;;;;1.15;1.05;;;;;;;32.56;61.99;100764.50;4909871;28;65678;-36
2023/09/13 05:56:00;;;;;;;0.70;0.70;;;;;;;32.52;62.28;100755.19;4927257;28;69739;-37
2023/09/13 05:58:30;;;;;;;0.70;0.70;;;;;;;32.60;62.20;100759.44;4915223;28;66582;-36
2023/09/13 06:01:00;;;;;;;1.00;0.90;;;;;;;32.61;61.74;100755.66;4919533;28;69415;-39
2023/09/13 06:03:32;;;;;;;1.02;0.93;;;;;;;32.55;61.83;100735.69;4926613;28;66366;-38
2023/09/13 06:06:02;;;;;;;1.05;1.05;;;;;;;32.61;62.18;100744.78;4918124;28;70576;-36
2023/09/13 06:08:33;;;;;;;1.13;1.10;;;;;;;32.56;62.00;100725.66;4921052;28;66174;-37
2023/09/13 06:11:02;;;;;;;1.05;0.93;;;;;;;32.66;61.97;100736.78;4919326;28;70728;-39
2023/09/13 06:13:33;;;;;;;1.20;1.10;;;;;;;32.66;62.17;100720.47;4922565;28;66547;-37
2023/09/13 06:16:03;;;;;;;1.27;1.15;;;;;;;32.66;62.34;100713.16;4914788;28;69674;-37
2023/09/13 06:18:34;;;;;;;1.30;1.20;;;;;;;32.68;61.99;100718.31;4929458;28;67319;-36
2023/09/13 06:21:04;;;;;;;1.33;1.10;;;;;;;32.70;62.12;100710.78;4889191;28;70656;-36
2023/09/13 06:23:36;;;;;;;1.00;1.00;;;;;;;32.74;61.88;100711.97;4922639;28;66841;-35
2023/09/13 06:26:07;;;;;;;1.27;1.17;;;;;;;32.75;61.87;100702.75;4924886;28;70566;-36
2023/09/13 06:28:39;;;;;;;1.00;1.00;;;;;;;32.77;62.27;100692.47;4902818;28;66023;-36
2023/09/13 06:31:09;;;;;;;1.60;1.50;;;;;;;32.74;61.91;100679.38;4918734;28;69228;-39
2023/09/13 06:33:58;;;;;;;1.67;1.35;;;;;;;32.73;61.46;100672.28;4911060;28;66631;-39
2023/09/13 06:36:49;;;;;;;2.05;1.88;;;;;;;32.77;61.87;100668.03;4902092;28;70078;-38
2023/09/13 06:39:20;;;;;;;1.45;1.35;;;;;;;32.88;61.80;100669.91;4922371;28;65760;-40
2023/09/13 06:41:51;;;;;;;1.60;1.50;;;;;;;32.91;61.71;100669.44;4922370;28;69618;-37
2023/09/13 06:44:21;;;;;;;1.65;1.55;;;;;;;32.93;61.54;100661.88;4909268;28;65618;-40
2023/09/13 06:47:11;;;;;;;2.95;1.55;;;;;;;32.96;61.46;100644.25;4894434;28;70153;-37
2023/09/13 06:49:43;;;;;;;2.00;1.90;;;;;;;32.97;61.44;100640.47;4899731;28;66691;-37
2023/09/13 06:52:15;;;;;;;2.88;1.50;;;;;;;32.99;61.36;100634.78;4872882;28;69368;-40
2023/09/13 06:54:47;;;;;;;1.75;1.65;;;;;;;33.01;61.13;100625.34;4929579;28;64858;-37
2023/09/13 06:57:20;;;;;;;1.40;1.30;;;;;;;33.04;61.32;100619.47;4904615;28;70073;-38
2023/09/13 06:59:53;;;;;;;2.20;1.60;;;;;;;33.06;61.30;100616.50;4905331;28;66512;-42
2023/09/13 07:02:28;;;;;;;1.45;1.33;;;;;;;33.09;61.22;100624.16;4913981;28;69854;-40
2023/09/13 07:05:05;;;;;;;3.35;1.52;;;;;;;33.09;61.22;100610.56;4922253;28;66270;-38
2023/09/13 07:07:38;;;;;;;1.50;1.40;;;;;;;33.12;61.27;100610.06;4918767;28;70464;-37
2023/09/13 07:10:08;;;;;;;1.50;1.40;;;;;;;33.15;61.31;100601.44;4910600;28;65864;-35
2023/09/13 07:12:38;;;;;;;1.67;1.58;;;;;;;33.17;61.41;100590.34;4914638;28;70361;-37
2023/09/13 07:15:09;;;;;;;1.73;1.63;;;;;;;33.22;61.20;100593.97;4928108;28;66306;-37
2023/09/13 07:17:39;;;;;;;1.25;1.15;;;;;;;33.25;60.95;100593.50;4885822;28;70919;-37
2023/09/13 07:20:11;;;;;;;0.87;0.87;;;;;;;33.26;60.88;100589.69;4904613;28;66279;-37
2023/09/13 07:22:42;;;;;;;1.30;1.15;;;;;;;33.27;60.97;100583.19;4911292;28;69041;-37
2023/09/13 07:25:12;;;;;;;1.55;1.45;;;;;;;33.31;60.95;100592.50;4917626;28;65600;-37
2023/09/13 07:27:42;;;;;;;1.50;1.40;;;;;;;33.27;60.77;100569.59;4902148;28;69900;-39
2023/09/13 07:30:12;;;;;;;1.60;1.50;;;;;;;33.38;60.51;100587.75;4901579;28;65336;-37
2023/09/13 07:32:43;;;;;;;1.40;1.30;;;;;;;33.37;60.72;100579.81;4914638;28;71301;-37
2023/09/13 07:35:13;;;;;;;1.15;1.13;;;;;;;33.44;60.47;100575.06;4917308;28;67007;-39
2023/09/13 07:37:43;;;;;;;1.80;1.70;;;;;;;33.47;60.51;100577.31;4925000;28;69525;-39
2023/09/13 07:40:13;;;;;;;2.15;1.27;;;;;;;33.52;60.29;100587.44;4913320;28;66026;-37
2023/09/13 07:42:43;;;;;;;1.55;1.40;;;;;;;33.55;60.64;100592.44;4911083;28;70195;-37
2023/09/13 07:45:13;;;;;;;3.30;1.60;;;;;;;33.51;60.02;100599.38;4916485;28;66118;-39
2023/09/13 07:47:43;;;;;;;1.98;1.83;;;;;;;33.56;60.27;100605.75;4918214;28;69630;-37
2023/09/13 07:50:30;;;;;;;4.45;1.80;;;;;;;33.53;59.55;100602.72;4921449;28;66744;-39
2023/09/13 07:53:00;;;;;;;1.90;1.80;;;;;;;33.60;60.26;100606.13;4918757;28;70146;-37
2023/09/13 07:55:43;;;;;;;2.10;2.00;;;;;;;33.61;59.78;100590.63;4906749;28;66068;-37
2023/09/13 07:58:34;;;;;;;2.28;2.17;;;;;;;33.62;60.36;100581.38;4899519;28;70349;-37
2023/09/13 08:01:04;;;;;;;2.10;2.00;;;;;;;33.63;60.32;100577.56;4922148;28;65571;-36
2023/09/13 08:03:37;;;;;;;2.15;1.95;;;;;;;33.66;59.98;100591.53;4918378;28;70180;-38
2023/09/13 08:06:14;;;;;;;1.92;1.83;;;;;;;33.68;60.19;100581.19;4920329;28;66868;-37
2023/09/13 08:08:45;;;;;;;2.28;2.08;;;;;;;33.71;59.38;100582.59;4916492;28;70448;-38
2023/09/13 08:11:15;;;;;;;2.20;2.00;;;;;;;33.71;59.47;100586.19;4916015;28;66669;-36
2023/09/13 08:13:45;;;;;;;2.28;2.17;;;;;;;33.70;59.96;100576.34;4885387;28;70584;-36
2023/09/13 08:16:16;;;;;;;2.10;2.00;;;;;;;33.73;59.58;100578.56;4918558;28;66220;-38
2023/09/13 08:18:47;;;;;;;3.08;2.30;;;;;;;33.71;59.36;100591.63;4918575;28;70345;-37
2023/09/13 08:21:19;;;;;;;;;;;;;;;33.49;60.11;100587.91;4909258;28;65514;-37
2023/09/13 08:23:49;;;;;;;1.80;1.70;;;;;;;33.70;59.74;100584.50;4905596;28;70620;-40
2023/09/13 08:26:19;;;;;;;2.10;1.90;;;;;;;33.65;59.27;100573.53;4918133;28;66149;-39
2023/09/13 08:28:57;;;;;;;2.10;1.95;;;;;;;33.75;59.58;100602.81;4925970;28;70212;-38
2023/09/13 08:31:27;;;;;;;2.30;2.20;;;;;;;33.74;59.62;100596.56;4915666;28;65276;-39
2023/09/13 08:33:57;;;;;;;1.77;1.67;;;;;;;33.73;59.90;100594.91;4915692;28;69348;-39
2023/09/13 08:36:27;;;;;;;2.30;2.20;;;;;;;33.75;60.05;100592.75;4920098;28;65694;-38
2023/09/13 08:38:58;;;;;;;2.20;2.10;;;;;;;33.76;59.82;100590.84;4923431;28;69553;-37
2023/09/13 08:41:29;;;;;;;1.90;1.80;;;;;;;33.77;59.64;100590.63;4914386;28;66557;-39
2023/09/13 08:44:01;;;;;;;3.25;2.25;;;;;;;33.74;59.37;100569.38;4898138;28;69163;-40
2023/09/13 08:46:32;;;;;;;2.28;2.10;;;;;;;33.75;59.83;100560.13;4909150;28;67065;-41
2023/09/13 08:49:05;;;;;;;2.45;1.90;;;;;;;33.70;60.00;100551.88;4914461;28;70303;-37
2023/09/13 08:51:36;;;;;;;2.25;2.13;;;;;;;33.78;59.59;100551.47;4924085;28;65852;-37
2023/09/13 08:54:06;;;;;;;2.40;2.30;;;;;;;33.78;60.23;100559.63;4918176;28;72177;-39
2023/09/13 08:56:39;;;;;;;2.50;2.40;;;;;;;33.81;59.97;100553.69;4929911;28;65388;-38
2023/09/13 08:59:18;;;;;;;2.38;2.28;;;;;;;33.55;59.58;100499.97;4920376;28;70654;-38
2023/09/13 09:01:50;;;;;;;2.25;2.15;;;;;;;33.51;60.25;100483.25;4921939;28;66282;-39
2023/09/13 09:04:21;;;;;;;2.20;2.00;;;;;;;33.85;59.94;100528.69;4916470;28;70180;-39
2023/09/13 09:06:52;;;;;;;2.47;2.37;;;;;;;33.85;60.09;100531.41;4923344;28;65784;-36
2023/09/13 09:09:28;;;;;;;2.38;2.25;;;;;;;33.91;59.81;100533.16;4913764;28;70659;-37
2023/09/13 09:12:00;;;;;;;2.67;2.58;;;;;;;33.35;60.05;100437.91;4934480;28;66539;-37
2023/09/13 09:14:33;;;;;;;2.20;2.10;;;;;;;33.83;59.90;100525.41;4909763;28;69250;-38
2023/09/13 09:17:04;;;;;;;2.40;2.30;;;;;;;33.93;59.74;100533.72;4929163;28;65942;-37
2023/09/13 09:19:35;;;;;;;2.33;2.17;;;;;;;33.91;60.19;100530.44;4922158;28;69921;-37
2023/09/13 09:22:09;;;;;;;2.13;1.95;;;;;;;33.91;60.00;100541.31;4898506;28;65268;-40
2023/09/13 09:24:42;;;;;;;3.72;3.47;;;;;;;33.61;61.40;100545.19;4881594;28;70167;-36
2023/09/13 09:27:13;;;;;;;5.63;5.13;;;;;;;33.43;62.54;100562.53;4914592;28;66484;-44
2023/09/13 09:29:45;;;;;;;5.73;5.33;;;;;;;33.36;62.96;100570.84;4921401;28;70359;-37
2023/09/13 09:32:15;;;;;;;6.32;5.90;;;;;;;33.29;63.52;100578.34;4905362;28;65303;-38
2023/09/13 09:34:45;;;;;;;5.47;5.15;;;;;;;33.22;64.08;100577.66;4925466;28;70210;-39
2023/09/13 09:37:17;;;;;;;6.45;5.85;;;;;;;33.22;63.60;100582.28;4928443;28;65790;-40
2023/09/13 09:39:48;;;;;;;5.30;5.00;;;;;;;33.09;64.55;100586.09;4918082;28;70060;-38
2023/09/13 09:42:18;;;;;;;5.63;5.32;;;;;;;33.09;64.66;100599.69;4903113;28;66010;-40
2023/09/13 09:44:48;;;;;;;5.88;5.57;;;;;;;33.08;65.23;100603.50;4926295;28;70629;-38
2023/09/13 09:47:20;;;;;;;6.22;5.72;;;;;;;33.04;65.58;100614.03;4924705;28;66414;-38
2023/09/13 09:49:50;;;;;;;;;;;;;;;32.78;66.13;100614.53;4929806;28;69464;-37
2023/09/13 09:52:41;;;;;;;5.90;5.40;;;;;;;32.90;65.95;100613.44;4913707;28;66730;-36
2023/09/13 09:55:15;;;;;;;;;;;;;;;32.75;66.18;100634.84;4919561;28;69887;-38
2023/09/13 09:57:50;;;;;;;6.30;5.80;;;;;;;32.95;65.86;100631.72;4912422;28;65973;-39
2023/09/13 10:00:22;;;;;;;5.68;5.35;;;;;;;32.98;65.22;100628.53;4901002;28;70185;-37
2023/09/13 10:02:52;;;;;;;10.38;5.35;;;;;;;32.93;65.69;100626.53;4922380;28;66465;-37
2023/09/13 10:05:33;;;;;;;6.18;5.78;;;;;;;32.89;66.40;100632.69;4915172;28;68897;-39
2023/09/13 10:08:06;;;;;;;9.60;5.43;;;;;;;32.87;66.60;100634.81;4899418;28;66382;-37
2023/09/13 10:10:38;;;;;;;6.10;5.70;;;;;;;32.91;66.60;100642.25;4876997;28;70213;-38
2023/09/13 10:13:14;;;;;;;6.20;5.70;;;;;;;32.75;66.93;100615.81;4932168;28;66509;-36
2023/09/13 10:15:45;;;;;;;6.30;5.90;;;;;;;32.86;67.32;100628.56;4931641;28;70401;-39
2023/09/13 10:18:17;;;;;;;9.15;6.53;;;;;;;32.86;67.27;100631.28;4923993;28;65620;-38
2023/09/13 10:20:47;;;;;;;9.85;5.97;;;;;;;32.83;67.27;100623.59;4904423;28;69665;-38
2023/09/13 10:23:20;;;;;;;8.30;5.82;;;;;;;32.94;65.87;100625.47;4918235;28;65487;-37
2023/09/13 10:25:51;;;;;;;6.53;6.03;;;;;;;33.06;65.13;100624.63;4924888;28;69849;-36
2023/09/13 10:28:27;;;;;;;14.73;5.87;;;;;;;32.87;65.31;100581.31;4921028;28;65516;-38
2023/09/13 10:31:02;;;;;;;6.10;5.20;;;;;;;32.65;64.74;100534.97;4904019;28;69572;-37
2023/09/13 10:33:36;;;;;;;5.95;5.45;;;;;;;32.94;64.52;100584.72;4927986;28;66362;-37
2023/09/13 10:36:11;;;;;;;6.22;5.85;;;;;;;33.29;64.29;100646.31;4922996;28;70098;-37
2023/09/13 10:38:49;;;;;;;6.38;5.80;;;;;;;33.02;64.69;100588.16;4919855;28;65802;-37
2023/09/13 10:41:20;;;;;;;5.60;5.20;;;;;;;33.30;64.34;100628.09;4926065;28;69763;-38
2023/09/13 10:43:50;;;;;;;10.17;5.17;;;;;;;33.33;64.15;100639.31;4905513;28;66480;-37
2023/09/13 10:46:22;;;;;;;6.00;5.15;;;;;;;33.33;64.05;100642.03;4930188;28;70542;-39
2023/09/13 10:48:52;;;;;;;;;;;;;;;33.07;65.70;100634.44;4922878;28;65755;-37
2023/09/13 10:51:24;;;;;;;8.30;6.20;;;;;;;33.30;64.61;100647.94;4914431;28;69751;-37
2023/09/13 10:53:55;;;;;;;7.07;6.47;;;;;;;33.30;64.22;100638.97;4913205;28;64818;-37
2023/09/13 10:56:27;;;;;;;6.07;5.68;;;;;;;33.27;64.28;100634.84;4907856;28;70565;-38
2023/09/13 10:58:58;;;;;;;6.00;5.38;;;;;;;33.29;64.35;100643.59;4933080;28;65294;-38
2023/09/13 11:01:29;;;;;;;5.87;5.47;;;;;;;33.29;64.40;100646.31;4924195;28;69356;-37
2023/09/13 11:04:00;;;;;;;5.60;5.10;;;;;;;33.27;64.42;100645.72;4922745;28;65918;-38
2023/09/13 11:06:31;;;;;;;6.28;5.78;;;;;;;33.27;64.51;100640.28;4925411;28;70041;-39
2023/09/13 11:09:14;;;;;;;6.07;5.68;;;;;;;33.21;65.34;100637.69;4910418;28;66196;-38
2023/09/13 11:11:48;;;;;;;7.60;5.63;;;;;;;32.88;64.72;100580.25;4918957;28;69271;-37
2023/09/13 11:14:29;;;;;;;9.85;4.82;;;;;;;33.21;64.82;100641.25;4922771;28;65286;-36
2023/09/13 11:17:37;;;;;;;5.45;5.07;;;;;;;33.09;65.16;100643.19;4921464;28;69861;-38
2023/09/13 11:20:37;;;;;;;5.60;5.20;;;;;;;32.73;65.35;100590.78;4936287;28;43243;-37
2023/09/13 11:23:18;;;;;;;5.45;5.05;;;;;;;33.13;64.70;100644.34;4929402;28;70076;-37
2023/09/13 11:26:04;;;;;;;5.75;5.35;;;;;;;33.17;64.64;100661.81;4910849;28;66368;-37
2023/09/13 11:28:48;;;;;;;5.50;5.10;;;;;;;33.09;65.16;100654.03;4923199;28;70399;-36
2023/09/13 11:31:21;;;;;;;6.35;5.95;;;;;;;33.16;64.71;100662.91;4925873;28;66314;-37
2023/09/13 11:33:57;;;;;;;6.75;6.35;;;;;;;33.13;64.83;100655.22;4932379;28;70000;-38
2023/09/13 11:36:28;;;;;;;6.28;5.88;;;;;;;33.07;64.93;100653.44;4920705;28;65667;-38
2023/09/13 11:39:01;;;;;;;6.10;5.70;;;;;;;33.02;65.35;100653.38;4906428;28;70810;-38
2023/09/13 11:41:39;;;;;;;5.68;5.30;;;;;;;33.02;65.03;100658.81;4917544;28;65495;-36
2023/09/13 11:44:23;;;;;;;6.20;5.78;;;;;;;33.07;64.99;100683.34;4918733;28;69299;-38
2023/09/13 11:46:56;;;;;;;6.47;5.97;;;;;;;33.00;65.47;100685.38;4917994;28;65679;-37
2023/09/13 11:49:27;;;;;;;6.22;5.80;;;;;;;32.77;66.88;100689.75;4912506;28;70086;-36